This is the latest recevied weather packets stored in our database for station/object CA4LJZ-10. If no packets are shown the sender has not sent any weather packets the latest 10 day(s).
| Time | Temp. | Humidity | Pressure | Rain* | Wind** | Luminosity | Snow |
|---|---|---|---|---|---|---|---|
| 1777621098 | 15° C | 67% | 955 hPa | - | - | - | - |
| 1777620197 | 16.11° C | 62% | 955.3 hPa | - | - | - | - |
| 1777619296 | 15.56° C | 64% | 955.1 hPa | - | - | - | - |
| 1777618394 | 17.22° C | 62% | 955.1 hPa | - | - | - | - |
| 1777617517 | 16.11° C | 63% | 955.1 hPa | - | - | - | - |
| 1777616616 | 16.67° C | 60% | 955.1 hPa | - | - | - | - |
| 1777615715 | 15.56° C | 64% | 954.9 hPa | - | - | - | - |
| 1777614814 | 16.67° C | 61% | 954.7 hPa | - | - | - | - |
| 1777613912 | 16.11° C | 63% | 954.5 hPa | - | - | - | - |
| 1777613011 | 16.67° C | 62% | 954.4 hPa | - | - | - | - |
| 1777612109 | 15.56° C | 66% | 954.4 hPa | - | - | - | - |
| 1777611208 | 16.11° C | 63% | 954.4 hPa | - | - | - | - |
| 1777610307 | 17.22° C | 60% | 954.4 hPa | - | - | - | - |
| 1777609406 | 17.78° C | 58% | 954.3 hPa | - | - | - | - |
| 1777608505 | 18.89° C | 56% | 954.3 hPa | - | - | - | - |
| 1777607604 | 18.89° C | 55% | 954.3 hPa | - | - | - | - |
| 1777606703 | 18.89° C | 55% | 954.2 hPa | - | - | - | - |
| 1777605802 | 18.89° C | 55% | 954.1 hPa | - | - | - | - |
| 1777604901 | 20.56° C | 51% | 954.1 hPa | - | - | - | - |
| 1777604000 | 22.22° C | 46% | 954 hPa | - | - | - | - |
| 1777603099 | 22.22° C | 47% | 953.8 hPa | - | - | - | - |
| 1777602199 | 22.22° C | 46% | 953.8 hPa | - | - | - | - |
| 1777601297 | 22.78° C | 45% | 953.5 hPa | - | - | - | - |
| 1777600397 | 23.33° C | 45% | 953.3 hPa | - | - | - | - |
| 1777586928 | 21.67° C | 48% | 950.6 hPa | - | - | - | - |
* Rain since midnight (hover to see other rain measurements)
** Current wind speed in m/s (hover to see current wind gust speed)